createdAt,value
2019-03-01T00:02:08.514Z,14.40
2019-03-01T00:04:50.554Z,14.30
2019-03-01T00:07:32.553Z,14.30
2019-03-01T00:10:14.502Z,14.30
2019-03-01T00:15:38.329Z,14.30
2019-03-01T00:21:04.152Z,14.20
2019-03-01T00:23:46.248Z,14.10
2019-03-01T00:26:28.023Z,14.10
2019-03-01T00:29:09.596Z,14.00
2019-03-01T00:31:52.499Z,14.00
2019-03-01T00:34:36.765Z,14.00
2019-03-01T00:37:19.801Z,13.90
2019-03-01T00:40:03.746Z,13.90
2019-03-01T00:42:46.747Z,13.90
2019-03-01T00:45:29.822Z,13.80
2019-03-01T00:48:12.007Z,13.80
2019-03-01T00:50:55.901Z,13.80
2019-03-01T00:53:37.797Z,13.80
2019-03-01T00:56:19.586Z,13.70
2019-03-01T00:59:02.774Z,13.70
2019-03-01T01:01:45.122Z,13.60
2019-03-01T01:04:27.154Z,13.50
2019-03-01T01:07:09.420Z,13.60
2019-03-01T01:09:52.338Z,13.50
2019-03-01T01:12:36.494Z,13.50
2019-03-01T01:15:19.194Z,13.50
2019-03-01T01:18:00.897Z,13.50
2019-03-01T01:20:44.983Z,13.50
2019-03-01T01:23:28.775Z,13.50
2019-03-01T01:26:11.580Z,13.50
2019-03-01T01:28:55.645Z,13.50
2019-03-01T01:31:37.558Z,13.50
2019-03-01T01:34:20.551Z,13.50
2019-03-01T01:37:03.057Z,13.50
2019-03-01T01:39:46.880Z,13.50
2019-03-01T01:42:30.824Z,13.40
2019-03-01T01:45:14.590Z,13.40
2019-03-01T01:47:56.448Z,13.40
2019-03-01T01:50:38.325Z,13.40
2019-03-01T01:53:21.042Z,13.40
2019-03-01T01:56:05.197Z,13.40
2019-03-01T01:58:47.403Z,13.40
2019-03-01T02:01:31.393Z,13.40
2019-03-01T02:04:13.437Z,13.30
2019-03-01T02:06:55.454Z,13.30
2019-03-01T02:09:38.394Z,13.30
2019-03-01T02:12:22.308Z,13.20
2019-03-01T02:15:05.524Z,13.20
2019-03-01T02:17:47.951Z,13.20
2019-03-01T02:20:30.074Z,13.20
2019-03-01T02:23:11.818Z,13.20
2019-03-01T02:25:53.837Z,13.10
2019-03-01T02:28:35.668Z,13.00
2019-03-01T02:31:17.680Z,13.00
2019-03-01T02:33:59.907Z,13.00
2019-03-01T02:36:41.980Z,12.90
2019-03-01T02:39:23.925Z,12.80
2019-03-01T02:42:05.686Z,12.80
2019-03-01T02:44:49.661Z,12.80
2019-03-01T02:47:31.562Z,12.70
2019-03-01T02:50:15.735Z,12.60
2019-03-01T02:52:59.921Z,12.60
2019-03-01T02:55:43.959Z,12.60
2019-03-01T02:58:25.957Z,12.60
2019-03-01T03:01:08.143Z,12.60
2019-03-01T03:03:50.112Z,12.60
2019-03-01T03:09:38.596Z,12.60
2019-03-01T03:12:20.532Z,12.60
2019-03-01T03:15:02.449Z,12.60
2019-03-01T03:17:44.316Z,12.50
2019-03-01T03:20:26.600Z,12.50
2019-03-01T03:23:08.875Z,12.60
2019-03-01T03:25:51.715Z,12.50
2019-03-01T03:28:37.474Z,12.40
2019-03-01T03:31:19.097Z,12.40
2019-03-01T03:34:02.186Z,12.40
2019-03-01T03:36:44.938Z,12.40
2019-03-01T03:39:26.959Z,12.30
2019-03-01T03:42:08.909Z,12.30
2019-03-01T03:44:50.982Z,12.30
2019-03-01T03:47:33.236Z,12.30
2019-03-01T03:50:17.266Z,12.30
2019-03-01T03:53:01.417Z,12.30
2019-03-01T03:55:32.203Z,12.30
2019-03-01T03:58:14.882Z,12.30
2019-03-01T04:01:01.026Z,12.30
2019-03-01T04:03:42.748Z,12.20
2019-03-01T04:06:26.741Z,12.20
2019-03-01T04:09:08.705Z,12.20
2019-03-01T04:11:51.245Z,12.20
2019-03-01T04:14:33.347Z,12.10
2019-03-01T04:17:15.279Z,12.10
2019-03-01T04:19:57.093Z,12.10
2019-03-01T04:22:40.974Z,12.10
2019-03-01T04:25:26.433Z,12.00
2019-03-01T04:30:49.069Z,12.00
2019-03-01T04:33:33.516Z,12.00
2019-03-01T04:36:04.887Z,11.90
2019-03-01T04:38:46.917Z,11.90
2019-03-01T04:41:28.821Z,11.90
2019-03-01T04:44:10.968Z,11.90
2019-03-01T04:46:53.617Z,11.80
2019-03-01T04:49:37.244Z,11.80
2019-03-01T04:52:19.484Z,11.80
2019-03-01T04:55:03.395Z,11.80
2019-03-01T04:57:45.551Z,12.10
2019-03-01T05:00:27.491Z,11.50
2019-03-01T05:03:09.208Z,11.50
2019-03-01T05:05:51.009Z,11.40
2019-03-01T05:08:32.903Z,11.40
2019-03-01T05:11:16.984Z,11.30
2019-03-01T05:14:01.076Z,11.30
2019-03-01T05:16:43.402Z,11.20
2019-03-01T05:19:25.505Z,11.20
2019-03-01T05:22:07.563Z,11.20
2019-03-01T06:05:35.003Z,11.10
2019-03-01T06:08:17.996Z,11.20
2019-03-01T06:11:00.082Z,11.30
2019-03-01T06:13:42.953Z,11.30
2019-03-01T06:16:24.968Z,11.40
2019-03-01T06:19:09.057Z,11.60
2019-03-01T06:21:51.000Z,11.60
2019-03-01T06:24:32.716Z,11.70
2019-03-01T06:27:16.365Z,11.80
2019-03-01T06:30:00.470Z,12.00
2019-03-01T06:32:42.403Z,12.10
2019-03-01T06:35:24.534Z,12.20
2019-03-01T06:38:06.770Z,12.50
2019-03-01T06:43:34.475Z,12.70
2019-03-01T06:46:17.472Z,12.90
2019-03-01T06:49:03.807Z,13.00
2019-03-01T06:51:46.153Z,13.10
2019-03-01T06:54:28.141Z,13.30
2019-03-01T06:57:12.495Z,13.40
2019-03-01T06:59:54.511Z,13.40
2019-03-01T07:02:42.558Z,13.40
2019-03-01T07:05:24.500Z,13.50
2019-03-01T07:08:08.687Z,13.50
2019-03-01T07:10:50.557Z,13.60
2019-03-01T07:13:34.654Z,13.80
2019-03-01T07:16:18.467Z,14.10
2019-03-01T07:19:00.458Z,14.50
2019-03-01T07:21:42.701Z,14.90
2019-03-01T07:24:26.939Z,15.30
2019-03-01T07:27:12.314Z,15.60
2019-03-01T07:29:54.489Z,16.00
2019-03-01T07:32:36.180Z,16.20
2019-03-01T07:35:18.257Z,16.20
2019-03-01T07:38:00.608Z,16.20
2019-03-01T07:40:42.289Z,16.10
2019-03-01T07:43:24.407Z,15.90
2019-03-01T07:46:08.640Z,15.80
2019-03-01T07:48:50.707Z,15.70
2019-03-01T07:51:36.007Z,15.60
2019-03-01T07:54:18.477Z,15.60
2019-03-01T07:57:02.545Z,15.50
2019-03-01T07:59:46.473Z,15.30
2019-03-01T08:02:28.318Z,15.30
2019-03-01T08:05:10.437Z,15.30
2019-03-01T08:07:56.024Z,15.30
2019-03-01T08:10:36.025Z,15.30
2019-03-01T08:13:18.484Z,15.10
2019-03-01T08:16:00.708Z,15.00
2019-03-01T08:18:46.633Z,14.90
2019-03-01T08:21:28.504Z,14.90
2019-03-01T08:24:11.125Z,14.90
2019-03-01T08:26:53.711Z,15.00
2019-03-01T08:29:35.915Z,15.10
2019-03-01T08:32:17.788Z,15.20
2019-03-01T08:35:00.022Z,15.30
2019-03-01T08:37:41.974Z,15.60
2019-03-01T08:40:24.165Z,15.90
2019-03-01T08:43:11.696Z,16.20
2019-03-01T08:45:51.998Z,16.40
2019-03-01T08:48:39.844Z,16.00
2019-03-01T08:51:26.539Z,17.20
2019-03-01T08:54:08.184Z,18.20
2019-03-01T08:56:52.621Z,21.50
2019-03-01T08:59:34.357Z,23.90
2019-03-01T09:02:16.347Z,25.20
2019-03-01T09:04:59.344Z,27.20
2019-03-01T09:07:43.630Z,28.60
2019-03-01T09:13:36.200Z,29.50
2019-03-01T09:16:18.381Z,29.60
2019-03-01T09:19:00.982Z,31.30
2019-03-01T09:21:50.018Z,32.70
2019-03-01T09:24:31.068Z,33.90
2019-03-01T09:27:15.373Z,35.60
2019-03-01T09:29:59.420Z,36.90
2019-03-01T09:32:41.554Z,36.60
2019-03-01T09:38:31.456Z,37.90
2019-03-01T09:41:13.024Z,39.10
2019-03-01T09:43:54.832Z,40.00
2019-03-01T09:46:36.374Z,40.30
2019-03-01T09:49:21.491Z,40.40
2019-03-01T09:52:01.962Z,38.90
2019-03-01T09:54:44.950Z,39.30
2019-03-01T09:57:29.033Z,40.30
2019-03-01T10:00:11.836Z,39.30
2019-03-01T10:02:53.549Z,37.70
2019-03-01T10:05:35.436Z,36.20
2019-03-01T10:08:19.267Z,35.60
2019-03-01T10:11:03.316Z,35.40
2019-03-01T10:13:47.688Z,35.40
2019-03-01T10:16:29.524Z,34.80
2019-03-01T10:19:13.505Z,34.70
2019-03-01T10:21:55.495Z,36.90
2019-03-01T10:24:38.367Z,37.80
2019-03-01T10:27:20.416Z,38.20
2019-03-01T10:30:04.309Z,39.10
2019-03-01T10:32:47.310Z,40.20
2019-03-01T10:35:28.960Z,39.50
2019-03-01T10:38:11.238Z,38.20
2019-03-01T10:40:53.105Z,37.10
2019-03-01T10:43:36.172Z,36.30
2019-03-01T10:46:20.236Z,36.60
2019-03-01T10:49:02.056Z,37.90
2019-03-01T10:51:45.985Z,39.10
2019-03-01T10:54:27.749Z,36.60
2019-03-01T10:57:09.623Z,35.20
2019-03-01T10:59:52.472Z,36.90
2019-03-01T11:02:34.477Z,38.00
2019-03-01T11:05:16.672Z,39.90
2019-03-01T11:08:01.208Z,41.90
2019-03-01T11:10:43.360Z,43.00
2019-03-01T11:13:27.292Z,43.10
2019-03-01T11:16:11.297Z,42.30
2019-03-01T11:18:53.306Z,42.60
2019-03-01T11:21:36.201Z,42.00
2019-03-01T11:24:19.149Z,41.20
2019-03-01T11:27:01.349Z,41.50
2019-03-01T11:32:25.126Z,41.80
2019-03-01T11:35:07.434Z,41.30
2019-03-01T11:37:50.091Z,40.40
2019-03-01T11:40:32.154Z,40.30
2019-03-01T11:43:14.173Z,40.30
2019-03-01T11:45:56.188Z,40.90
2019-03-01T11:48:38.198Z,40.90
2019-03-01T11:51:20.300Z,40.30
2019-03-01T11:54:02.243Z,40.50
2019-03-01T11:56:44.449Z,40.80
2019-03-01T11:59:26.656Z,40.70
2019-03-01T12:04:51.948Z,40.70
2019-03-01T12:07:33.939Z,40.50
2019-03-01T12:10:16.617Z,40.90
2019-03-01T12:12:58.711Z,40.70
2019-03-01T12:15:40.865Z,40.30
2019-03-01T12:18:22.767Z,39.40
2019-03-01T12:21:04.613Z,40.00
2019-03-01T12:23:46.789Z,40.10
2019-03-01T12:26:29.006Z,39.90
2019-03-01T12:29:10.498Z,40.70
2019-03-01T12:31:53.586Z,40.70
2019-03-01T12:34:35.893Z,39.60
2019-03-01T12:37:18.329Z,38.20
2019-03-01T12:40:00.380Z,33.70
2019-03-01T12:42:45.059Z,32.50
2019-03-01T12:45:29.081Z,28.90
2019-03-01T12:51:19.293Z,23.80
2019-03-01T12:54:01.401Z,22.20
2019-03-01T12:56:43.223Z,21.30
2019-03-01T12:59:24.891Z,20.80
2019-03-01T13:02:08.009Z,20.20
2019-03-01T13:04:53.581Z,20.00
2019-03-01T13:07:36.533Z,20.10
2019-03-01T13:10:18.869Z,20.20
2019-03-01T13:13:02.248Z,20.30
2019-03-01T13:15:45.434Z,20.10
2019-03-01T13:18:28.416Z,19.90
2019-03-01T13:21:12.910Z,19.70
2019-03-01T13:23:57.720Z,19.30
2019-03-01T13:26:40.797Z,18.90
2019-03-01T13:29:23.551Z,18.80
2019-03-01T13:32:05.395Z,18.90
2019-03-01T13:34:49.463Z,19.00
2019-03-01T13:37:31.632Z,18.90
2019-03-01T13:40:13.890Z,18.70
2019-03-01T13:42:55.999Z,18.60
2019-03-01T13:45:38.915Z,18.50
2019-03-01T13:48:22.804Z,18.50
2019-03-01T13:51:04.836Z,18.40
2019-03-01T13:56:32.840Z,18.30
2019-03-01T13:59:14.733Z,18.20
2019-03-01T14:01:56.414Z,18.00
2019-03-01T14:04:41.189Z,17.90
2019-03-01T14:07:25.280Z,17.80
2019-03-01T14:10:08.406Z,17.70
2019-03-01T14:12:51.687Z,17.40
2019-03-01T14:15:38.285Z,17.10
2019-03-01T14:18:21.205Z,17.00
2019-03-01T14:21:03.949Z,17.00
2019-03-01T14:23:47.301Z,16.90
2019-03-01T14:26:31.141Z,16.80
2019-03-01T14:29:15.982Z,16.70
2019-03-01T14:31:58.367Z,16.70
2019-03-01T14:34:41.051Z,16.50
2019-03-01T14:37:23.034Z,16.40
2019-03-01T14:40:05.117Z,16.60
2019-03-01T14:42:48.280Z,16.70
2019-03-01T14:45:30.179Z,16.70
2019-03-01T14:48:11.985Z,16.50
2019-03-01T14:50:55.992Z,16.40
2019-03-01T14:53:37.920Z,16.30
2019-03-01T14:56:21.546Z,16.30
2019-03-01T14:59:03.474Z,16.30
2019-03-01T15:01:46.074Z,16.20
2019-03-01T15:04:29.650Z,16.00
2019-03-01T15:07:11.827Z,15.80
2019-03-01T15:09:57.149Z,15.80
2019-03-01T15:12:39.524Z,15.60
2019-03-01T15:15:22.916Z,15.40
2019-03-01T15:18:06.283Z,15.10
2019-03-01T15:20:49.301Z,14.80
2019-03-01T15:23:33.368Z,14.80
2019-03-01T15:26:16.010Z,14.70
2019-03-01T15:28:58.950Z,14.50
2019-03-01T15:31:41.402Z,14.30
2019-03-01T15:34:25.592Z,14.20
2019-03-01T15:37:07.683Z,14.10
2019-03-01T15:39:54.253Z,14.20
2019-03-01T15:42:35.860Z,14.30
2019-03-01T15:45:20.109Z,14.40
2019-03-01T15:48:05.233Z,14.30
2019-03-01T15:50:47.401Z,14.30
2019-03-01T15:53:29.397Z,14.20
2019-03-01T15:56:11.497Z,14.10
2019-03-01T15:58:53.679Z,13.90
2019-03-01T16:01:35.468Z,13.70
2019-03-01T16:04:17.992Z,13.40
2019-03-01T16:06:59.970Z,13.20
2019-03-01T16:09:41.733Z,13.10
2019-03-01T16:12:23.617Z,13.00
2019-03-01T16:15:06.091Z,12.90
2019-03-01T16:17:47.806Z,12.80
2019-03-01T16:20:29.738Z,12.70
2019-03-01T16:23:13.917Z,12.40
2019-03-01T16:25:58.100Z,12.40
2019-03-01T16:28:42.363Z,12.30
2019-03-01T16:31:24.479Z,12.20
2019-03-01T16:34:07.535Z,12.00
2019-03-01T16:36:52.152Z,12.00
2019-03-01T16:42:17.944Z,11.80
2019-03-01T16:45:00.591Z,11.70
2019-03-01T16:47:44.324Z,11.70
2019-03-01T16:50:26.446Z,11.70
2019-03-01T16:53:10.948Z,11.60
2019-03-01T16:55:52.944Z,11.50
2019-03-01T16:58:35.475Z,11.50
2019-03-01T17:01:17.337Z,11.40
2019-03-01T17:03:59.377Z,11.30
2019-03-01T17:06:41.389Z,11.30
2019-03-01T17:09:23.282Z,11.30
2019-03-01T17:12:07.448Z,11.30
2019-03-01T17:14:49.722Z,11.40
2019-03-01T17:17:33.156Z,11.30
2019-03-01T17:20:15.677Z,11.40
2019-03-01T17:23:02.838Z,11.40
2019-03-01T17:25:44.941Z,11.40
2019-03-01T17:28:27.303Z,11.50
2019-03-01T17:31:10.123Z,11.50
2019-03-01T17:33:53.599Z,11.50
2019-03-01T17:36:36.512Z,11.50
2019-03-01T17:39:20.072Z,11.50
2019-03-01T17:42:02.877Z,11.40
2019-03-01T17:44:47.034Z,11.50
2019-03-01T17:47:30.078Z,11.50
2019-03-01T17:50:13.900Z,11.50
2019-03-01T17:52:55.832Z,11.40
2019-03-01T17:55:38.440Z,11.40
2019-03-01T17:58:21.058Z,11.40
2019-03-01T18:01:03.859Z,11.40
2019-03-01T18:03:46.197Z,11.40
2019-03-01T18:06:30.001Z,11.40
2019-03-01T18:09:13.241Z,11.40
2019-03-01T18:11:57.187Z,11.30
2019-03-01T18:14:39.328Z,11.20
2019-03-01T18:17:20.910Z,11.20
2019-03-01T18:20:02.981Z,11.20
2019-03-01T18:22:47.119Z,11.20
2019-03-01T18:25:31.097Z,11.10
2019-03-01T18:28:15.340Z,11.10
2019-03-01T18:30:57.574Z,11.10
2019-03-01T18:33:39.365Z,11.10
2019-03-01T18:36:21.704Z,11.20
2019-03-01T18:39:06.866Z,11.30
2019-03-01T18:41:49.238Z,11.40
2019-03-01T18:44:31.648Z,11.30
2019-03-01T18:47:14.223Z,11.20
2019-03-01T18:49:56.220Z,11.00
2019-03-01T18:52:38.295Z,10.90
2019-03-01T18:55:20.624Z,10.80
2019-03-01T18:58:03.588Z,10.70
2019-03-01T19:00:47.656Z,10.70
2019-03-01T19:03:29.689Z,10.60
2019-03-01T19:06:16.293Z,10.50
2019-03-01T19:08:57.281Z,10.70
2019-03-01T19:11:38.918Z,10.70
2019-03-01T19:14:20.976Z,10.70
2019-03-01T19:17:05.031Z,10.70
2019-03-01T19:19:48.456Z,10.60
2019-03-01T19:22:30.489Z,10.60
2019-03-01T19:25:12.689Z,10.50
2019-03-01T19:27:56.712Z,10.50
2019-03-01T19:30:39.237Z,10.40
2019-03-01T19:33:20.897Z,10.40
2019-03-01T19:36:05.111Z,10.40
2019-03-01T19:38:48.820Z,10.30
2019-03-01T19:41:30.815Z,10.30
2019-03-01T19:44:15.492Z,10.30
2019-03-01T19:46:59.468Z,10.30
2019-03-01T19:49:41.567Z,10.30
2019-03-01T19:52:23.348Z,10.30
2019-03-01T19:55:08.031Z,10.30
2019-03-01T19:57:49.045Z,10.30
2019-03-01T20:00:31.473Z,10.30
2019-03-01T20:03:15.403Z,10.30
2019-03-01T20:05:59.479Z,10.20
2019-03-01T20:08:43.464Z,10.30
2019-03-01T20:11:27.538Z,10.30
2019-03-01T20:14:13.157Z,10.30
2019-03-01T20:16:58.202Z,10.20
2019-03-01T20:19:40.780Z,10.20
2019-03-01T20:22:25.132Z,10.20
2019-03-01T20:25:08.908Z,10.20
2019-03-01T20:27:52.948Z,10.20
2019-03-01T20:30:34.918Z,10.20
2019-03-01T20:33:18.002Z,10.20
2019-03-01T20:36:02.446Z,10.20
2019-03-01T20:38:45.452Z,10.20
2019-03-01T20:41:27.370Z,10.20
2019-03-01T20:44:09.289Z,10.20
2019-03-01T20:49:35.715Z,10.20
2019-03-01T20:52:18.106Z,10.30
2019-03-01T20:55:00.690Z,10.30
2019-03-01T20:57:44.207Z,10.20
2019-03-01T21:00:27.121Z,10.20
2019-03-01T21:03:09.483Z,10.30
2019-03-01T21:05:51.569Z,10.20
2019-03-01T21:08:33.807Z,10.20
2019-03-01T21:11:15.721Z,10.20
2019-03-01T21:13:57.721Z,10.20
2019-03-01T21:16:41.441Z,10.20
2019-03-01T21:19:24.607Z,10.20
2019-03-01T21:22:06.830Z,10.20
2019-03-01T21:24:49.075Z,10.20
2019-03-01T21:27:30.955Z,10.20
2019-03-01T21:30:13.042Z,10.20
2019-03-01T21:32:55.443Z,10.20
2019-03-01T21:35:39.722Z,10.10
2019-03-01T21:38:23.971Z,10.10
2019-03-01T21:41:06.313Z,10.10
2019-03-01T21:43:51.513Z,10.10
2019-03-01T21:46:35.527Z,10.00
2019-03-01T21:49:06.074Z,10.00
2019-03-01T21:51:56.051Z,10.00
2019-03-01T21:54:48.647Z,10.00
2019-03-01T21:57:32.310Z,10.00
2019-03-01T22:00:15.569Z,10.00
2019-03-01T22:03:00.298Z,10.00
2019-03-01T22:05:45.398Z,10.00
2019-03-01T22:08:27.674Z,10.00
2019-03-01T22:11:10.542Z,10.00
2019-03-01T22:13:55.388Z,10.00
2019-03-01T22:16:39.423Z,10.00
2019-03-01T22:19:23.186Z,10.00
2019-03-01T22:22:07.390Z,10.00
2019-03-01T22:24:49.490Z,10.00
2019-03-01T22:27:32.035Z,10.00
2019-03-01T22:30:14.168Z,9.90
2019-03-01T22:32:57.653Z,9.90
2019-03-01T22:35:43.525Z,9.90
2019-03-01T22:38:24.869Z,9.90
2019-03-01T22:41:07.848Z,9.90
2019-03-01T22:43:52.045Z,9.80
2019-03-01T22:46:34.037Z,9.80
2019-03-01T22:49:15.633Z,9.80
2019-03-01T22:51:57.320Z,9.80
2019-03-01T22:54:41.400Z,9.80
2019-03-01T22:57:26.038Z,9.80
2019-03-01T23:00:07.962Z,9.80
2019-03-01T23:02:52.010Z,9.80
2019-03-01T23:05:39.211Z,9.70
2019-03-01T23:08:23.365Z,9.80
2019-03-01T23:11:05.046Z,9.70
2019-03-01T23:13:48.261Z,9.80
2019-03-01T23:16:32.095Z,9.80
2019-03-01T23:19:16.201Z,9.80
2019-03-01T23:22:00.291Z,9.80
2019-03-01T23:24:45.943Z,9.80
2019-03-01T23:27:28.435Z,9.80
2019-03-01T23:30:12.240Z,9.80
2019-03-01T23:32:55.890Z,9.80
2019-03-01T23:35:38.473Z,9.80
2019-03-01T23:38:20.593Z,9.90
2019-03-01T23:41:02.555Z,9.90
2019-03-01T23:43:44.281Z,9.90
2019-03-01T23:46:28.557Z,9.80
2019-03-01T23:49:10.189Z,9.80
2019-03-01T23:51:53.231Z,9.80
2019-03-01T23:54:37.175Z,9.70
2019-03-01T23:57:20.119Z,9.60
